Site contains unofficial IBTrACS data. Visit the IBTrACS Website to access archived data.

1931 NOT_NAMED (1931245N22118)


IBTrACS version v04r00. Visit IBTrACS website for data access.
Please direct all questions to the IBTrACS Q and A forum

Storm track - Intensity - Wind Radii - Intensity Data - Source Data - All data

Summary Information

Storm ID 1931245N22118
Start Sep 1 22Z
Landfall Sep 3 09Z
End Sep 3 22Z
ATCF IDs
Track status Best track data.

Storm track plot

Map of storm track

Intensity plots

No Intensity information for this storm


Radial wind information

No radial wind information for this storm


Position and Intensity Table

BASIN ISO_TIME_________ NATURE LAT LON
degrees north degrees east
WP 1931-09-01 22:00:00 NR 21.80 118.00
WP 1931-09-02 00:00:00 NR 21.80 117.72
WP 03:00:00 NR 21.79 117.31
WP 06:00:00 NR 21.79 116.91
WP 09:00:00 NR 21.80 116.52
WP 10:00:00 NR 21.80 116.40
WP 12:00:00 NR 21.81 116.16
WP 15:00:00 NR 21.85 115.81
WP 18:00:00 NR 21.90 115.47
WP 21:00:00 NR 21.97 115.12
WP 22:00:00 NR 22.00 115.00
WP 1931-09-03 00:00:00 NR 22.06 114.72
WP 03:00:00 NR 22.17 114.30
WP 06:00:00 NR 22.29 113.88
WP 09:00:00 NR 22.44 113.51
WP 10:00:00 NR 22.50 113.40
WP 12:00:00 NR 22.62 113.21
WP 15:00:00 NR 22.81 112.98
WP 18:00:00 NR 23.02 112.80
WP 21:00:00 NR 23.23 112.65
WP 22:00:00 NR 23.30 112.60

Source Information

Agency Information
USA
TOKYO
CMA
HKO
NEWDELHI
REUNION
BOM
NADI
WELLINGTON
DS824
TD9636 cons_worldwide_trop_cyclone_18710101-19891231-003:Line=8801
TD9635
NEUMANN
MLC

All available IBTrACS Data

SEASON BASIN SUBBASIN ISO_TIME_________ NATURE LAT LON DIST2LAND LANDFALL IFLAG USA SSHS TD9636 LAT TD9636 LON TD9636 STAGE STORM SPEED STORM DIR
Year degrees north degrees east km km 1 degrees north degrees east kts degrees
1931 WP MM 1931-09-01 22:00:00 NR 21.80 118.00 197 174 __________O___ -1 21.80 118.00 7 8 269
1931 WP MM 1931-09-02 00:00:00 NR 21.80 117.72 174 147 __________P___ -1 21.80 117.72 7 8 269
1931 WP MM 03:00:00 NR 21.79 117.31 147 129 __________P___ -1 21.79 117.31 7 8 269
1931 WP MM 06:00:00 NR 21.79 116.91 129 119 __________P___ -1 21.79 116.91 7 7 270
1931 WP MM 09:00:00 NR 21.80 116.52 119 115 __________P___ -1 21.80 116.52 7 7 271
1931 WP MM 10:00:00 NR 21.80 116.40 115 108 __________O___ -1 21.80 116.40 3 7 273
1931 WP MM 12:00:00 NR 21.81 116.16 108 100 __________P___ -1 21.81 116.16 3 7 275
1931 WP MM 15:00:00 NR 21.85 115.81 100 89 __________P___ -1 21.85 115.81 3 6 278
1931 WP MM 18:00:00 NR 21.90 115.47 89 59 __________P___ -1 21.90 115.47 3 7 281
1931 WP MM 21:00:00 NR 21.97 115.12 59 56 __________P___ -1 21.97 115.12 3 7 283
1931 WP MM 22:00:00 NR 22.00 115.00 56 45 __________O___ -1 22.00 115.00 4 8 283
1931 WP MM 1931-09-03 00:00:00 NR 22.06 114.72 45 11 __________P___ -1 22.06 114.72 4 8 284
1931 WP MM 03:00:00 NR 22.17 114.30 11 11 __________P___ -1 22.17 114.30 4 8 287
1931 WP MM 06:00:00 NR 22.29 113.88 11 0 __________P___ -1 22.29 113.88 4 8 291
1931 WP MM 09:00:00 NR 22.44 113.51 0 0 __________P___ -1 22.44 113.51 4 7 295
1931 WP MM 10:00:00 NR 22.50 113.40 0 0 __________O___ -1 22.50 113.40 7 7 302
1931 WP MM 12:00:00 NR 22.62 113.21 0 0 __________P___ -1 22.62 113.21 7 6 309
1931 WP MM 15:00:00 NR 22.81 112.98 0 0 __________P___ -1 22.81 112.98 7 5 316
1931 WP MM 18:00:00 NR 23.02 112.80 0 0 __________P___ -1 23.02 112.80 7 5 324
1931 WP MM 21:00:00 NR 23.23 112.65 0 0 __________P___ -1 23.23 112.65 7 5 327
1931 WP MM 22:00:00 NR 23.30 112.60 0 __________O___ -1 23.30 112.60 7 5 335